createdAt,value
2023-04-13T00:00:23.801Z,5.90
2023-04-13T00:02:56.371Z,6.35
2023-04-13T00:05:25.330Z,7.03
2023-04-13T00:07:54.627Z,6.40
2023-04-13T00:10:24.293Z,6.25
2023-04-13T00:12:53.031Z,6.07
2023-04-13T00:15:21.649Z,6.38
2023-04-13T00:17:53.561Z,5.88
2023-04-13T00:20:23.844Z,6.47
2023-04-13T00:22:53.127Z,5.97
2023-04-13T00:25:24.513Z,6.43
2023-04-13T00:27:54.217Z,6.75
2023-04-13T00:30:23.615Z,6.45
2023-04-13T00:32:52.266Z,7.18
2023-04-13T00:35:25.442Z,6.78
2023-04-13T00:37:54.495Z,7.05
2023-04-13T00:40:25.460Z,6.85
2023-04-13T00:42:55.424Z,6.22
2023-04-13T00:45:24.274Z,6.53
2023-04-13T00:47:54.339Z,6.18
2023-04-13T00:50:26.335Z,6.95
2023-04-13T00:52:55.411Z,6.25
2023-04-13T00:55:25.269Z,6.88
2023-04-13T00:57:53.959Z,6.10
2023-04-13T01:00:24.882Z,6.28
2023-04-13T01:03:02.008Z,6.25
2023-04-13T01:05:37.626Z,7.05
2023-04-13T01:08:15.021Z,6.60
2023-04-13T01:10:51.799Z,5.90
2023-04-13T01:13:24.828Z,6.72
2023-04-13T01:16:04.107Z,6.45
2023-04-13T01:18:40.384Z,6.40
2023-04-13T01:21:15.790Z,7.28
2023-04-13T01:23:55.215Z,7.10
2023-04-13T01:26:27.523Z,6.88
2023-04-13T01:28:58.400Z,7.90
2023-04-13T01:31:27.439Z,8.15
2023-04-13T01:33:58.617Z,7.65
2023-04-13T01:36:27.975Z,7.20
2023-04-13T01:38:56.968Z,7.53
2023-04-13T01:43:56.298Z,8.18
2023-04-13T01:46:34.566Z,7.85
2023-04-13T01:49:12.473Z,7.78
2023-04-13T01:51:45.341Z,9.43
2023-04-13T01:54:23.310Z,7.90
2023-04-13T01:56:52.525Z,8.65
2023-04-13T01:59:24.138Z,11.23
2023-04-13T02:01:54.857Z,8.43
2023-04-13T02:04:23.661Z,10.35
2023-04-13T02:06:56.548Z,12.50
2023-04-13T02:09:31.053Z,9.10
2023-04-13T02:11:59.907Z,8.65
2023-04-13T02:14:29.642Z,9.35
2023-04-13T02:16:59.895Z,9.25
2023-04-13T02:19:28.969Z,8.20
2023-04-13T02:22:00.134Z,8.93
2023-04-13T02:24:30.294Z,8.68
2023-04-13T02:27:02.779Z,9.07
2023-04-13T02:29:31.423Z,8.35
2023-04-13T02:32:02.063Z,7.85
2023-04-13T02:34:30.908Z,8.65
2023-04-13T02:37:00.288Z,9.25
2023-04-13T02:39:32.077Z,8.52
2023-04-13T02:42:02.446Z,8.48
2023-04-13T02:44:34.283Z,8.65
2023-04-13T02:47:04.717Z,8.88
2023-04-13T02:49:33.348Z,8.63
2023-04-13T02:52:17.758Z,8.57
2023-04-13T02:57:58.164Z,8.80
2023-04-13T03:00:28.812Z,8.10
2023-04-13T03:03:04.358Z,8.45
2023-04-13T03:05:38.854Z,8.73
2023-04-13T03:08:11.829Z,8.63
2023-04-13T03:10:50.737Z,8.32
2023-04-13T03:13:19.596Z,9.15
2023-04-13T03:15:49.725Z,11.13
2023-04-13T03:18:23.898Z,10.40
2023-04-13T03:20:59.527Z,12.10
2023-04-13T03:23:37.082Z,17.48
2023-04-13T03:26:11.627Z,17.63
2023-04-13T03:31:11.739Z,21.33
2023-04-13T03:33:44.476Z,15.38
2023-04-13T03:36:20.600Z,12.80
2023-04-13T03:38:52.186Z,14.52
2023-04-13T03:41:21.623Z,86.75
2023-04-13T03:43:50.724Z,35.38
2023-04-13T03:46:19.705Z,21.55
2023-04-13T03:48:50.059Z,15.68
2023-04-13T03:51:22.697Z,19.40
2023-04-13T03:53:55.940Z,250.88
2023-04-13T03:56:28.050Z,53.85
2023-04-13T03:58:58.335Z,33.60
2023-04-13T04:01:28.971Z,16.85
2023-04-13T04:03:59.651Z,195.43
2023-04-13T04:06:31.372Z,12.50
2023-04-13T04:09:16.169Z,8.40
2023-04-13T04:11:49.491Z,10.93
2023-04-13T04:14:26.039Z,169.07
2023-04-13T04:17:04.864Z,58.33
2023-04-13T04:19:37.257Z,8.90
2023-04-13T04:22:07.330Z,8.82
2023-04-13T04:24:43.608Z,11.85
2023-04-13T04:27:15.628Z,62.67
2023-04-13T04:29:51.941Z,12.80
2023-04-13T04:32:37.376Z,9.63
2023-04-13T04:35:17.263Z,155.18
2023-04-13T04:37:58.222Z,11.65
2023-04-13T04:40:30.398Z,8.32
2023-04-13T04:43:02.950Z,8.35
2023-04-13T04:45:41.955Z,8.00
2023-04-13T04:48:15.073Z,8.73
2023-04-13T04:50:52.915Z,8.23
2023-04-13T04:53:25.398Z,8.05
2023-04-13T04:55:57.395Z,8.52
2023-04-13T04:58:47.227Z,19.40
2023-04-13T05:01:18.115Z,11.27
2023-04-13T05:03:51.783Z,13.95
2023-04-13T05:06:41.897Z,39.40
2023-04-13T05:09:15.654Z,21.40
2023-04-13T05:11:52.782Z,19.17
2023-04-13T05:14:24.003Z,22.33
2023-04-13T05:16:54.784Z,22.23
2023-04-13T05:19:38.624Z,11.98
2023-04-13T05:22:29.400Z,11.88
2023-04-13T05:25:05.350Z,9.95
2023-04-13T05:27:34.458Z,47.33
2023-04-13T05:30:07.217Z,20.27
2023-04-13T05:32:41.366Z,12.30
2023-04-13T05:35:11.752Z,11.13
2023-04-13T05:37:41.930Z,42.15
2023-04-13T05:40:17.652Z,11.27
2023-04-13T05:42:46.863Z,14.85
2023-04-13T05:45:24.561Z,37.03
2023-04-13T05:48:09.509Z,19.42
2023-04-13T05:50:38.720Z,8.25
2023-04-13T05:53:13.628Z,17.52
2023-04-13T05:55:48.771Z,19.77
2023-04-13T05:58:21.804Z,13.98
2023-04-13T06:03:35.482Z,14.20
2023-04-13T06:06:06.941Z,12.27
2023-04-13T06:08:43.782Z,20.90
2023-04-13T06:11:15.613Z,10.75
2023-04-13T06:13:47.175Z,8.20
2023-04-13T06:16:18.894Z,17.58
2023-04-13T06:18:53.674Z,31.58
2023-04-13T06:21:22.857Z,44.28
2023-04-13T06:23:54.894Z,18.85
2023-04-13T06:26:31.784Z,15.52
2023-04-13T06:29:24.613Z,20.98
2023-04-13T06:32:17.441Z,16.98
2023-04-13T06:34:53.174Z,7.32
2023-04-13T06:37:26.446Z,15.32
2023-04-13T06:40:14.777Z,8.77
2023-04-13T06:43:08.930Z,11.85
2023-04-13T06:46:06.712Z,8.40
2023-04-13T06:51:14.510Z,6.70
2023-04-13T06:53:52.535Z,14.43
2023-04-13T06:56:36.305Z,8.50
2023-04-13T06:59:08.051Z,8.98
2023-04-13T07:01:42.779Z,18.33
2023-04-13T07:04:15.856Z,26.42
2023-04-13T07:06:50.010Z,12.38
2023-04-13T07:09:21.050Z,35.83
2023-04-13T07:12:04.607Z,26.33
2023-04-13T07:14:48.562Z,50.53
2023-04-13T07:17:24.373Z,43.45
2023-04-13T07:19:56.235Z,21.15
2023-04-13T07:22:25.087Z,12.93
2023-04-13T07:24:56.462Z,40.58
2023-04-13T07:27:29.953Z,118.22
2023-04-13T07:30:02.059Z,107.28
2023-04-13T07:32:38.373Z,12.73
2023-04-13T07:35:17.962Z,164.20
2023-04-13T07:37:57.828Z,19.88
2023-04-13T07:40:35.226Z,16.40
2023-04-13T07:43:09.593Z,81.80
2023-04-13T07:45:41.497Z,12.63
2023-04-13T07:48:13.104Z,9.43
2023-04-13T07:50:44.126Z,79.50
2023-04-13T07:53:18.176Z,128.55
2023-04-13T07:55:52.584Z,216.98
2023-04-13T07:58:27.924Z,77.43
2023-04-13T08:00:56.956Z,21.10
2023-04-13T08:03:27.749Z,831.10
2023-04-13T08:05:59.333Z,696.05
2023-04-13T08:08:28.130Z,618.40
2023-04-13T08:11:04.359Z,224.95
2023-04-13T08:13:40.315Z,70.60
2023-04-13T08:16:14.839Z,36.85
2023-04-13T08:18:46.974Z,19.13
2023-04-13T08:21:16.325Z,19.20
2023-04-13T08:23:47.862Z,10.45
2023-04-13T08:29:05.846Z,9.50
2023-04-13T08:31:53.685Z,7.85
2023-04-13T08:34:25.048Z,7.60
2023-04-13T08:36:55.478Z,7.07
2023-04-13T08:39:27.595Z,10.73
2023-04-13T08:41:57.203Z,22.33
2023-04-13T08:44:33.104Z,7.85
2023-04-13T08:47:05.904Z,7.20
2023-04-13T08:49:40.686Z,27.95
2023-04-13T08:52:29.823Z,131.98
2023-04-13T08:55:01.237Z,12.25
2023-04-13T08:57:33.977Z,12.95
2023-04-13T09:00:11.612Z,8.68
2023-04-13T09:02:56.236Z,8.05
2023-04-13T09:05:38.445Z,7.40
2023-04-13T09:08:08.484Z,6.70
2023-04-13T09:10:42.375Z,57.47
2023-04-13T09:13:11.459Z,21.02
2023-04-13T09:15:42.969Z,13.27
2023-04-13T09:18:58.703Z,9.13
2023-04-13T09:21:38.917Z,9.18
2023-04-13T09:24:09.687Z,33.75
2023-04-13T09:26:42.543Z,23.08
2023-04-13T09:29:14.960Z,8.30
2023-04-13T09:31:46.077Z,8.60
2023-04-13T09:34:37.632Z,7.93
2023-04-13T09:37:14.378Z,55.17
2023-04-13T09:39:43.286Z,28.70
2023-04-13T09:42:18.376Z,13.05
2023-04-13T09:44:58.300Z,9.20
2023-04-13T09:47:38.180Z,7.88
2023-04-13T09:50:18.633Z,7.30
2023-04-13T09:52:47.587Z,8.23
2023-04-13T09:55:18.164Z,15.98
2023-04-13T09:57:49.974Z,10.38
2023-04-13T10:00:21.621Z,9.55
2023-04-13T10:02:51.477Z,9.60
2023-04-13T10:05:29.185Z,11.18
2023-04-13T10:08:01.172Z,11.55
2023-04-13T10:13:08.785Z,10.05
2023-04-13T10:15:59.425Z,10.90
2023-04-13T10:18:42.853Z,13.18
2023-04-13T10:21:19.170Z,25.17
2023-04-13T10:23:47.995Z,17.00
2023-04-13T10:26:19.991Z,16.20
2023-04-13T10:28:52.642Z,15.77
2023-04-13T10:31:21.886Z,14.75
2023-04-13T10:33:57.247Z,13.93
2023-04-13T10:36:41.972Z,24.30
2023-04-13T10:39:26.767Z,14.20
2023-04-13T10:42:03.170Z,11.73
2023-04-13T10:44:43.631Z,12.48
2023-04-13T10:47:15.986Z,9.75
2023-04-13T10:49:46.264Z,9.85
2023-04-13T10:52:23.818Z,10.23
2023-04-13T10:54:54.022Z,8.27
2023-04-13T10:57:23.052Z,8.45
2023-04-13T10:59:59.144Z,26.40
2023-04-13T11:02:33.327Z,18.60
2023-04-13T11:05:04.947Z,143.93
2023-04-13T11:07:36.633Z,12.50
2023-04-13T11:10:13.312Z,10.25
2023-04-13T11:12:57.820Z,9.50
2023-04-13T11:15:30.022Z,8.98
2023-04-13T11:18:04.286Z,10.25
2023-04-13T11:20:34.172Z,70.05
2023-04-13T11:23:07.740Z,49.17
2023-04-13T11:25:37.866Z,8.18
2023-04-13T11:28:10.155Z,7.68
2023-04-13T11:30:39.457Z,7.07
2023-04-13T11:33:09.391Z,19.90
2023-04-13T11:35:49.778Z,370.90
2023-04-13T11:38:21.778Z,30.60
2023-04-13T11:41:07.880Z,14.35
2023-04-13T11:43:48.545Z,9.55
2023-04-13T11:46:26.630Z,14.60
2023-04-13T11:49:00.161Z,8.88
2023-04-13T11:51:29.686Z,8.35
2023-04-13T11:54:01.231Z,8.57
2023-04-13T11:56:31.278Z,8.82
2023-04-13T11:59:01.602Z,8.50
2023-04-13T12:01:34.511Z,9.45
2023-04-13T12:04:15.935Z,9.10
2023-04-13T12:06:53.224Z,8.18
2023-04-13T12:09:43.992Z,8.05
2023-04-13T12:15:14.057Z,8.02
2023-04-13T12:17:59.925Z,8.93
2023-04-13T12:20:41.897Z,8.20
2023-04-13T12:23:22.822Z,9.00
2023-04-13T12:25:58.380Z,8.20
2023-04-13T12:28:33.639Z,7.93
2023-04-13T12:31:05.077Z,9.00
2023-04-13T12:33:43.827Z,8.30
2023-04-13T12:36:13.698Z,7.28
2023-04-13T12:38:49.870Z,8.05
2023-04-13T12:41:23.124Z,8.32
2023-04-13T12:43:54.359Z,8.13
2023-04-13T12:46:25.164Z,7.30
2023-04-13T12:48:56.977Z,7.15
2023-04-13T12:51:30.296Z,7.93
2023-04-13T12:54:03.735Z,7.15
2023-04-13T12:56:36.296Z,7.55
2023-04-13T12:59:05.960Z,7.45
2023-04-13T13:04:09.226Z,6.70
2023-04-13T13:06:38.201Z,8.00
2023-04-13T13:09:08.106Z,7.88
2023-04-13T13:11:41.446Z,7.70
2023-04-13T13:14:11.324Z,7.22
2023-04-13T13:16:43.826Z,7.50
2023-04-13T13:19:12.659Z,6.78
2023-04-13T13:21:44.377Z,6.70
2023-04-13T13:24:13.348Z,6.65
2023-04-13T13:27:10.134Z,6.55
2023-04-13T13:29:37.050Z,6.85
2023-04-13T13:32:06.813Z,7.45
2023-04-13T13:34:37.367Z,7.15
2023-04-13T13:37:07.935Z,6.80
2023-04-13T13:39:39.617Z,7.03
2023-04-13T13:42:13.934Z,6.55
2023-04-13T13:44:42.926Z,6.80
2023-04-13T13:47:19.067Z,6.68
2023-04-13T13:49:51.863Z,6.90
2023-04-13T13:52:35.062Z,7.40
2023-04-13T13:55:08.616Z,7.22
2023-04-13T13:57:43.982Z,7.50
2023-04-13T14:00:17.228Z,7.60
2023-04-13T14:02:50.915Z,7.38
2023-04-13T14:05:23.030Z,8.07
2023-04-13T14:07:53.268Z,8.32
2023-04-13T14:10:24.462Z,7.85
2023-04-13T14:13:00.709Z,7.90
2023-04-13T14:15:30.333Z,7.85
2023-04-13T14:18:11.022Z,7.63
2023-04-13T14:20:41.261Z,8.13
2023-04-13T14:23:10.361Z,7.35
2023-04-13T14:25:41.440Z,8.00
2023-04-13T14:28:12.919Z,7.72
2023-04-13T14:30:42.136Z,7.63
2023-04-13T14:35:43.855Z,8.52
2023-04-13T14:38:16.759Z,7.60
2023-04-13T14:40:45.558Z,7.70
2023-04-13T14:43:16.405Z,7.57
2023-04-13T14:45:45.334Z,8.40
2023-04-13T14:48:18.862Z,7.50
2023-04-13T14:50:47.620Z,7.43
2023-04-13T14:53:24.979Z,7.38
2023-04-13T14:55:53.754Z,7.50
2023-04-13T14:58:23.884Z,7.28
2023-04-13T15:00:52.769Z,7.20
2023-04-13T15:03:21.441Z,7.55
2023-04-13T15:05:58.384Z,8.00
2023-04-13T15:08:34.409Z,6.45
2023-04-13T15:11:03.280Z,8.60
2023-04-13T15:13:33.789Z,6.78
2023-04-13T15:16:02.900Z,7.15
2023-04-13T15:18:31.702Z,6.85
2023-04-13T15:21:03.837Z,7.15
2023-04-13T15:23:33.784Z,7.95
2023-04-13T15:26:06.361Z,7.13
2023-04-13T15:28:41.284Z,7.45
2023-04-13T15:31:12.420Z,7.85
2023-04-13T15:33:41.193Z,6.95
2023-04-13T15:36:15.955Z,5.97
2023-04-13T15:38:45.041Z,6.28
2023-04-13T15:41:13.809Z,4.82
2023-04-13T15:43:44.276Z,4.85
2023-04-13T15:46:16.659Z,4.72
2023-04-13T15:48:46.911Z,4.75
2023-04-13T15:51:16.178Z,4.93
2023-04-13T15:53:44.911Z,5.13
2023-04-13T15:56:13.840Z,4.75
2023-04-13T15:58:44.284Z,4.55
2023-04-13T16:01:14.408Z,5.22
2023-04-13T16:03:43.345Z,4.72
2023-04-13T16:06:12.428Z,4.85
2023-04-13T16:08:41.724Z,5.13
2023-04-13T16:16:14.679Z,6.05
2023-04-13T16:18:44.161Z,4.63
2023-04-13T16:21:13.368Z,4.53
2023-04-13T16:23:43.732Z,5.40
2023-04-13T16:26:12.776Z,4.97
2023-04-13T16:28:46.842Z,4.28
2023-04-13T16:31:22.526Z,5.03
2023-04-13T16:33:51.592Z,4.78
2023-04-13T16:36:29.293Z,4.95
2023-04-13T16:39:12.011Z,4.50
2023-04-13T16:41:42.946Z,5.15
2023-04-13T16:44:11.820Z,5.05
2023-04-13T16:46:43.264Z,4.72
2023-04-13T16:49:12.664Z,5.45
2023-04-13T16:54:13.883Z,4.60
2023-04-13T16:56:43.350Z,4.78
2023-04-13T17:01:46.075Z,4.72
2023-04-13T17:04:17.371Z,5.05
2023-04-13T17:06:48.736Z,4.78
2023-04-13T17:09:17.543Z,5.30
2023-04-13T17:11:49.548Z,4.80
2023-04-13T17:14:18.363Z,5.47
2023-04-13T17:16:49.895Z,5.57
2023-04-13T17:19:23.698Z,5.05
2023-04-13T17:21:52.795Z,5.35
2023-04-13T17:24:26.425Z,5.28
2023-04-13T17:26:55.639Z,5.13
2023-04-13T17:29:24.492Z,5.00
2023-04-13T17:31:54.847Z,4.57
2023-04-13T17:34:25.000Z,4.78
2023-04-13T17:36:53.899Z,4.82
2023-04-13T17:39:23.124Z,5.15
2023-04-13T17:41:52.043Z,4.75
2023-04-13T17:44:20.726Z,4.60
2023-04-13T17:46:50.977Z,4.82
2023-04-13T17:49:22.192Z,4.72
2023-04-13T17:51:53.705Z,4.40
2023-04-13T17:54:22.620Z,5.45
2023-04-13T17:56:51.320Z,5.10
2023-04-13T17:59:20.156Z,4.88
2023-04-13T18:01:51.447Z,5.07
2023-04-13T18:04:22.435Z,4.47
2023-04-13T18:06:52.114Z,5.28
2023-04-13T18:09:25.052Z,4.43
2023-04-13T18:11:53.861Z,4.43
2023-04-13T18:14:22.911Z,4.43
2023-04-13T18:16:51.710Z,4.50
2023-04-13T18:19:22.128Z,4.45
2023-04-13T18:21:50.898Z,4.55
2023-04-13T18:24:19.496Z,5.00
2023-04-13T18:26:48.239Z,4.53
2023-04-13T18:29:17.152Z,4.70
2023-04-13T18:31:45.890Z,5.13
2023-04-13T18:34:15.477Z,4.45
2023-04-13T18:39:14.397Z,4.75
2023-04-13T18:41:43.096Z,4.70
2023-04-13T18:44:11.638Z,4.60
2023-04-13T18:46:40.439Z,5.07
2023-04-13T18:49:09.228Z,4.82
2023-04-13T18:51:37.944Z,4.95
2023-04-13T18:54:08.925Z,4.60
2023-04-13T18:56:37.611Z,4.70
2023-04-13T18:59:06.234Z,4.83
2023-04-13T19:01:35.196Z,5.47
2023-04-13T19:04:04.057Z,4.80
2023-04-13T19:06:32.901Z,5.07
2023-04-13T19:09:01.841Z,6.35
2023-04-13T19:11:46.911Z,5.25
2023-04-13T19:14:15.556Z,5.07
2023-04-13T19:16:45.833Z,5.23
2023-04-13T19:19:16.332Z,4.68
2023-04-13T19:21:45.022Z,5.13
2023-04-13T19:24:13.636Z,4.90
2023-04-13T19:26:43.861Z,5.28
2023-04-13T19:29:13.524Z,5.22
2023-04-13T19:31:44.257Z,5.20
2023-04-13T19:34:13.560Z,5.78
2023-04-13T19:36:42.795Z,5.78
2023-04-13T19:39:11.496Z,4.97
2023-04-13T19:41:41.292Z,6.18
2023-04-13T19:44:13.668Z,6.10
2023-04-13T19:46:44.832Z,5.78
2023-04-13T19:49:13.662Z,5.60
2023-04-13T19:51:42.310Z,6.10
2023-04-13T19:54:10.874Z,5.53
2023-04-13T19:56:39.868Z,5.50
2023-04-13T19:59:08.544Z,5.60
2023-04-13T20:01:40.774Z,5.70
2023-04-13T20:04:10.110Z,6.28
2023-04-13T20:06:38.876Z,6.15
2023-04-13T20:09:12.479Z,6.43
2023-04-13T20:11:42.132Z,6.90
2023-04-13T20:14:11.625Z,5.70
2023-04-13T20:16:42.059Z,6.10
2023-04-13T20:19:11.314Z,6.55
2023-04-13T20:21:42.189Z,6.68
2023-04-13T20:24:11.124Z,7.47
2023-04-13T20:26:39.986Z,7.68
2023-04-13T20:29:08.659Z,7.93
2023-04-13T20:31:37.888Z,8.10
2023-04-13T20:34:09.789Z,8.43
2023-04-13T20:36:38.667Z,7.78
2023-04-13T20:39:09.743Z,8.20
2023-04-13T20:41:39.138Z,7.40
2023-04-13T20:46:42.142Z,8.63
2023-04-13T20:49:12.608Z,9.27
2023-04-13T20:51:41.411Z,9.60
2023-04-13T20:54:10.187Z,10.18
2023-04-13T20:56:38.823Z,9.90
2023-04-13T20:59:07.810Z,10.90
2023-04-13T21:01:37.828Z,11.48
2023-04-13T21:04:07.160Z,11.43
2023-04-13T21:06:37.481Z,11.32
2023-04-13T21:09:06.395Z,10.93
2023-04-13T21:11:35.209Z,10.65
2023-04-13T21:14:04.296Z,9.98
2023-04-13T21:16:33.285Z,10.18
2023-04-13T21:19:02.281Z,9.02
2023-04-13T21:21:32.859Z,11.88
2023-04-13T21:24:03.138Z,9.57
2023-04-13T21:26:33.099Z,9.15
2023-04-13T21:29:02.056Z,9.30
2023-04-13T21:31:31.132Z,10.60
2023-04-13T21:34:00.398Z,10.38
2023-04-13T21:39:01.889Z,8.90
2023-04-13T21:41:32.329Z,9.00
2023-04-13T21:44:01.392Z,9.95
2023-04-13T21:46:30.366Z,9.35
2023-04-13T21:48:59.413Z,9.75
2023-04-13T21:51:28.686Z,9.07
2023-04-13T21:53:57.603Z,9.85
2023-04-13T21:56:27.328Z,10.38
2023-04-13T21:58:57.940Z,9.88
2023-04-13T22:01:27.426Z,9.68
2023-04-13T22:03:57.246Z,9.68
2023-04-13T22:06:26.549Z,10.30
2023-04-13T22:08:57.750Z,9.30
2023-04-13T22:11:26.765Z,10.35
2023-04-13T22:13:57.142Z,10.18
2023-04-13T22:16:25.970Z,10.43
2023-04-13T22:18:54.869Z,10.43
2023-04-13T22:21:23.629Z,10.10
2023-04-13T22:23:52.566Z,9.60
2023-04-13T22:26:21.408Z,10.80
2023-04-13T22:28:50.412Z,10.38
2023-04-13T22:31:20.791Z,9.95
2023-04-13T22:33:49.797Z,12.05
2023-04-13T22:36:19.852Z,13.32
2023-04-13T22:38:49.102Z,14.13
2023-04-13T22:41:18.189Z,13.57
2023-04-13T22:43:47.464Z,14.15
2023-04-13T22:48:46.826Z,12.93
2023-04-13T22:51:16.660Z,10.93
2023-04-13T22:53:46.417Z,9.98
2023-04-13T22:56:16.870Z,12.60
2023-04-13T22:58:45.723Z,11.30
2023-04-13T23:01:14.560Z,11.18
2023-04-13T23:03:43.582Z,10.48
2023-04-13T23:06:14.604Z,10.30
2023-04-13T23:08:43.470Z,12.57
2023-04-13T23:11:12.623Z,11.15
2023-04-13T23:13:41.898Z,10.98
2023-04-13T23:16:11.688Z,11.25
2023-04-13T23:18:40.576Z,10.27
2023-04-13T23:21:12.701Z,9.80
2023-04-13T23:23:42.978Z,9.98
2023-04-13T23:26:11.898Z,9.65
2023-04-13T23:28:40.900Z,8.75
2023-04-13T23:31:10.217Z,8.60
2023-04-13T23:33:39.064Z,10.93
2023-04-13T23:36:08.450Z,11.55
2023-04-13T23:38:37.537Z,9.88
2023-04-13T23:41:07.888Z,9.25
2023-04-13T23:43:37.110Z,9.13
2023-04-13T23:46:06.118Z,9.25
2023-04-13T23:48:35.007Z,8.65
2023-04-13T23:51:03.934Z,9.27
2023-04-13T23:53:33.155Z,9.50
2023-04-13T23:56:02.054Z,11.20
2023-04-13T23:58:32.411Z,10.35
